• Join FlightAware (Why Join?)
  • Login
  • US Flag 
01:09AM EDT


 

Airport Tracker/Info


-or-


 

Live Flight TrackerFlight Track Log ✈ EGF3773 ✈ 11-Jun-2013 ✈ KDEN - KORD

Flight Track Log - Related Links

Times and Time Zones

All times are in EDT time to prevent confusion due to time zone crossing. See the EGF3773 flight status page for this flight to view local times or setup timezone preferences in your user account.

Time Position Orientation Groundspeed Altitude Reporting Facility
EDT Latitude Longitude Course Direction KTS MPH feet Rate Location/Type
08:42PM 39.9333 -104.6667 79° East 239 275 7,900  Level Denver TRACON
08:43PM 39.9045 -104.3585 80° East  Level FlightAware Approximate
08:43PM 39.9500 -104.5667 78° East 293 337 9,400  Level Denver TRACON
08:44PM 39.9312 -104.2039 73° East  Level FlightAware Approximate
08:44PM 39.9503 -104.5156 90° East 305 351 10,000  Level Denver Center
08:45PM 39.9662 -104.0518 73° East  Level FlightAware Approximate
08:45PM 39.9622 -104.3911 83° East 345 397 10,300  Level Denver Center
08:46PM 39.9884 -103.8982 79° East  Level FlightAware Approximate
08:46PM 39.9761 -104.2517 83° East 382 440 11,600  Level Denver Center
08:47PM 40.0197 -103.7455 79° East  Level FlightAware Approximate
08:47PM 39.9900 -104.0983 83° East 397 457 13,100  Level Denver Center
08:48PM 40.0412 -103.5952 79° East  Level FlightAware Approximate
08:48PM 40.0039 -103.9553 83° East 401 461 14,700  Level Denver Center
08:49PM 40.0172 -103.8078 83° East 409 471 16,100 1,320 Climbing Denver Center
08:50PM 40.0458 -103.6206 79° East 410 472 17,700 1,440 Climbing Denver Center
08:51PM 40.0717 -103.4656 78° East 435 501 19,100 1,380 Climbing Denver Center
08:52PM 40.0964 -103.3106 78° East 437 503 20,600 1,320 Climbing Denver Center
08:53PM 40.1214 -103.1569 78° East 435 501 22,200 1,380 Climbing Denver Center
08:54PM 40.1514 -102.9686 78° East 442 509 23,800 1,500 Climbing Denver Center
08:55PM 40.1750 -102.8081 79° East 449 517 25,300 1,560 Climbing Denver Center
08:56PM 40.2050 -102.6156 78° East 454 522 27,000 1,140 Climbing Denver Center
08:57PM 40.2300 -102.4575 78° East 464 534 27,700 720 Climbing Denver Center
08:59PM 40.2608 -102.2672 78° East 477 549 28,500 960 Climbing Denver Center
09:00PM 40.2861 -102.0989 79° East 489 563 29,700 1,200 Climbing Denver Center
09:01PM 40.3092 -101.9333 80° East 485 558 31,000 1,200 Climbing Denver Center
09:02PM 40.3369 -101.7422 79° East 478 550 32,200 1,020 Climbing Denver Center
09:03PM 40.3614 -101.5789 79° East 478 550 33,200 780 Climbing Denver Center
09:04PM 40.3892 -101.3856 79° East 483 556 33,900 540 Climbing Denver Center
09:05PM 40.4122 -101.2161 80° East 493 567 34,400 600 Climbing Denver Center
09:06PM 40.4400 -101.0172 80° East 498 573 35,200 780 Climbing Denver Center
09:07PM 40.4792 -100.8547 72° East 493 567 36,100 840 Climbing Denver Center
09:08PM 40.5456 -100.6783 64° Northeast 487 560 37,000 360 Climbing Denver Center
09:09PM 40.6014 -100.5253 64° Northeast 490 564 37,000  Level Denver Center
09:10PM 40.6792 -100.3158 64° Northeast 504 580 37,000  Level Denver Center
09:11PM 40.7386 -100.1544 64° Northeast 512 589 37,000  Level Denver Center
09:12PM 40.8072 -99.9661 64° Northeast 514 592 37,000  Level Denver Center
09:13PM 40.8611 -99.8172 64° Northeast 509 586 37,000 60 Level Denver Center
09:14PM 40.9336 -99.6158 64° Northeast 506 582 37,200 240 Climbing Denver Center
09:15PM 40.9694 -99.5181 64° Northeast 503 579 37,500 480 Climbing Minneapolis Center
09:16PM 41.0286 -99.3517 65° Northeast 499 574 38,100 420 Climbing Minneapolis Center
09:16PM 41.0522 -99.2825 66° East 500 575 38,200 420 Climbing Denver Center
09:17PM 41.1211 -99.0883 65° Northeast 499 574 38,800 480 Climbing Denver Center
09:18PM 41.1511 -99.0058 64° Northeast 495 570 39,000 180 Climbing Minneapolis Center
09:18PM 41.1672 -98.9567 66° East 497 572 39,000  Level Denver Center
09:19PM 41.2092 -98.8378 65° Northeast 497 572 39,000  Level Minneapolis Center
09:20PM 41.2664 -98.6683 66° East 500 575 39,000  Level Minneapolis Center
09:21PM 41.3397 -98.4608 65° Northeast 507 583 39,000  Level Minneapolis Center
09:22PM 41.3981 -98.2872 66° East 512 589 39,000  Level Minneapolis Center
09:23PM 41.4550 -98.1131 66° East 513 590 39,000  Level Minneapolis Center
09:24PM 41.5117 -97.9411 66° East 511 588 39,000  Level Minneapolis Center
09:25PM 41.5667 -97.7664 67° East 511 588 39,000  Level Minneapolis Center
09:26PM 41.6236 -97.5894 67° East 513 590 39,000  Level Minneapolis Center
09:27PM 41.6806 -97.4111 67° East 517 595 39,000  Level Minneapolis Center
09:28PM 41.7369 -97.2317 67° East 519 597 39,000  Level Minneapolis Center
09:29PM 41.8053 -97.0175 67° East 520 598 39,000  Level Minneapolis Center
09:30PM 41.8406 -96.8294 76° East 522 601 39,000  Level Minneapolis Center
09:31PM 41.8625 -96.6389 81° East 517 595 39,000  Level Minneapolis Center
09:32PM 41.8864 -96.4453 81° East 521 600 39,000  Level Minneapolis Center
09:33PM 41.9089 -96.2531 81° East 520 598 39,000  Level Minneapolis Center
09:34PM 41.9306 -96.0611 81° East 516 594 39,000  Level Minneapolis Center
09:35PM 41.9522 -95.8711 81° East 513 590 39,000  Level Minneapolis Center
09:37PM 41.9725 -95.6819 82° East 511 588 39,000  Level Minneapolis Center
09:38PM 41.9917 -95.4914 82° East 511 588 39,000  Level Minneapolis Center
09:39PM 42.0156 -95.2636 82° East 511 588 39,000  Level Minneapolis Center
09:40PM 42.0356 -95.0750 82° East 511 588 39,000  Level Minneapolis Center
09:41PM 42.0542 -94.8856 82° East 510 587 39,000  Level Minneapolis Center
09:42PM 42.0739 -94.6972 82° East 509 586 39,000  Level Minneapolis Center
09:43PM 42.0925 -94.5064 82° East 512 589 39,000  Level Minneapolis Center
09:44PM 42.1108 -94.3167 83° East 511 588 39,000  Level Minneapolis Center
09:45PM 42.1292 -94.1289 82° East 508 585 39,000  Level Minneapolis Center
09:46PM 42.1469 -93.9403 83° East 506 582 39,000  Level Minneapolis Center
09:47PM 42.1644 -93.7483 83° East 502 578 39,000  Level Minneapolis Center
09:48PM 42.1817 -93.5636 83° East 502 578 39,000  Level Minneapolis Center
09:49PM 42.1978 -93.3797 83° East 499 574 39,000  Level Minneapolis Center
09:50PM 42.2172 -93.1569 83° East 503 579 39,000  Level Minneapolis Center
09:51PM 42.2336 -92.9736 83° East 501 577 39,000  Level Minneapolis Center
09:52PM 42.2492 -92.7892 83° East 500 575 39,000 -420 Level Minneapolis Center
09:53PM 42.2650 -92.6017 83° East 504 580 38,200 -900 Descending Minneapolis Center
09:54PM 42.2786 -92.4131 84° East 510 587 37,200 -1,020 Descending Minneapolis Center
09:55PM 42.2947 -92.2244 83° East 512 589 36,200 -1,140 Descending Minneapolis Center
09:56PM 42.3114 -91.9964 84° East 515 593 35,000 -1,080 Descending Minneapolis Center
09:57PM 42.3264 -91.8064 84° East 517 595 34,000 -1,020 Descending Minneapolis Center
09:58PM 42.3389 -91.6131 85° East 523 602 33,000 -1,020 Descending Minneapolis Center
09:59PM 42.3531 -91.4192 84° East 528 608 32,000 -1,080 Descending Minneapolis Center
10:00PM 42.3711 -91.1486 85° East 530 610 30,600 -1,080 Descending Chicago Center
10:01PM 42.3844 -90.9511 85° East 536 617 29,600 -1,020 Descending Chicago Center
10:02PM 42.3981 -90.7567 85° East 530 610 28,600 -1,020 Descending Chicago Center
10:03PM 42.4139 -90.5744 83° East 501 577 27,600 -1,020 Descending Chicago Center
10:04PM 42.4325 -90.3933 82° East 494 568 26,600 -1,020 Descending Chicago Center
10:05PM 42.4514 -90.2094 82° East 499 574 25,600 -1,080 Descending Chicago Center
10:06PM 42.4736 -89.9886 82° East 501 577 24,500 -1,080 Descending Chicago Center
10:07PM 42.4925 -89.7983 82° East 503 579 23,500 -1,440 Descending Chicago Center
10:08PM 42.5103 -89.6164 82° East 491 565 21,600 -2,220 Descending Chicago Center
10:09PM 42.5264 -89.4397 83° East 476 548 19,000 -2,580 Descending Chicago Center
10:11PM 42.5422 -89.2708 83° East 456 525 16,400 -2,400 Descending Chicago Center
10:12PM 42.5350 -89.1106 93° East 442 509 14,100 -1,200 Descending Chicago Center
10:13PM 42.4922 -88.9408 109° East 416 479 14,000 -180 Descending Chicago Center
10:14PM 42.4525 -88.7942 110° East 416 479 13,800 -600 Descending Chicago Center
10:15PM 42.4142 -88.6492 110° East 411 473 12,800 -1,020 Descending Chicago Center
10:16PM 42.3778 -88.5119 110° East 392 451 11,800 -900 Descending Chicago Center
10:17PM 42.3328 -88.3817 115° Southeast 385 443 11,000 -420 Descending Chicago Center
10:18PM 42.2714 -88.2750 128° Southeast 329 379 11,000  Level Chicago Center
10:19PM 42.2175 -88.1828 128° Southeast 317 365 11,000 -540 Level Chicago Center
10:20PM 42.1606 -88.1086 136° Southeast 292 336 9,900 -1,080 Descending Chicago Center
10:20PM 42.1167 -88.0500 135° Southeast 275 316 9,200 -960 Descending Chicago TRACON
10:21PM 42.1000 -87.9833 109° East 271 312 8,400 -1,020 Descending Chicago TRACON
10:22PM 42.1000 -87.8833 90° East 274 315 7,300 -900 Descending Chicago TRACON
10:23PM 42.0919 -87.8464 106° East 263 303 7,100 -720 Descending Chicago Center
10:24PM 42.0919 -87.7631 90° East 230 265 6,300 -1,020 Descending Chicago Center
10:25PM 42.0925 -87.6822 89° East 219 252 5,100 -1,140 Descending Chicago Center
10:26PM 42.0847 -87.5922 97° East 217 250 4,000 -540 Descending Chicago Center
10:27PM 42.0325 -87.5883 177° South 209 241 4,000  Level Chicago Center
10:28PM 42.0139 -87.6458 246° West 177 204 4,000 -300 Level Chicago Center
10:29PM 41.9964 -87.7067 249° West 174 200 3,400 -600 Descending Chicago Center